sensor_id;sensor_type;location;lat;lon;timestamp;pressure;altitude;pressure_sealevel;temperature;humidity
41632;BME280;37452;51.938;4.624;2023-07-13T00:01:39;76093.94;;;-142.75;100.00
41632;BME280;37452;51.938;4.624;2023-07-13T00:04:04;76090.00;;;-142.75;100.00
41632;BME280;37452;51.938;4.624;2023-07-13T00:06:31;76082.13;;;-142.75;100.00
41632;BME280;37452;51.938;4.624;2023-07-13T00:08:58;76076.22;;;-142.75;100.00
41632;BME280;37452;51.938;4.624;2023-07-13T00:11:24;76070.34;;;-142.75;100.00
41632;BME280;37452;51.938;4.624;2023-07-13T00:13:49;76068.38;;;-142.75;100.00
41632;BME280;37452;51.938;4.624;2023-07-13T00:16:15;76060.50;;;-142.75;100.00
41632;BME280;37452;51.938;4.624;2023-07-13T00:18:40;76060.50;;;-142.75;100.00
41632;BME280;37452;51.938;4.624;2023-07-13T00:21:06;76056.56;;;-142.75;100.00
41632;BME280;37452;51.938;4.624;2023-07-13T00:23:36;76052.63;;;-142.75;100.00
41632;BME280;37452;51.938;4.624;2023-07-13T00:26:04;76048.69;;;-142.75;100.00
41632;BME280;37452;51.938;4.624;2023-07-13T00:28:29;76068.38;;;-142.75;100.00
41632;BME280;37452;51.938;4.624;2023-07-13T00:30:55;76093.94;;;-142.75;100.00
41632;BME280;37452;51.938;4.624;2023-07-13T00:33:21;76091.97;;;-142.75;100.00
41632;BME280;37452;51.938;4.624;2023-07-13T00:35:48;76090.00;;;-142.75;100.00
41632;BME280;37452;51.938;4.624;2023-07-13T00:38:14;76070.34;;;-142.75;100.00
41632;BME280;37452;51.938;4.624;2023-07-13T00:40:39;76062.47;;;-142.75;100.00
41632;BME280;37452;51.938;4.624;2023-07-13T00:43:12;76054.59;;;-142.75;100.00
41632;BME280;37452;51.938;4.624;2023-07-13T00:48:11;76042.78;;;-142.75;100.00
41632;BME280;37452;51.938;4.624;2023-07-13T00:50:38;76040.81;;;-142.75;100.00
41632;BME280;37452;51.938;4.624;2023-07-13T00:53:04;76048.69;;;-142.75;100.00
41632;BME280;37452;51.938;4.624;2023-07-13T00:55:30;76054.59;;;-142.75;100.00
41632;BME280;37452;51.938;4.624;2023-07-13T00:57:55;76058.53;;;-142.75;100.00
41632;BME280;37452;51.938;4.624;2023-07-13T01:00:22;76058.53;;;-142.75;100.00
41632;BME280;37452;51.938;4.624;2023-07-13T01:02:48;76064.44;;;-142.75;100.00
41632;BME280;37452;51.938;4.624;2023-07-13T01:05:20;76068.38;;;-142.75;100.00
41632;BME280;37452;51.938;4.624;2023-07-13T01:07:47;76074.25;;;-142.75;100.00
41632;BME280;37452;51.938;4.624;2023-07-13T01:10:14;76068.38;;;-142.75;100.00
41632;BME280;37452;51.938;4.624;2023-07-13T01:12:39;76078.19;;;-142.75;100.00
41632;BME280;37452;51.938;4.624;2023-07-13T01:15:32;76097.88;;;-142.75;100.00
41632;BME280;37452;51.938;4.624;2023-07-13T01:17:51;76099.84;;;-142.75;100.00
41632;BME280;37452;51.938;4.624;2023-07-13T01:20:17;76125.44;;;-142.75;100.00
41632;BME280;37452;51.938;4.624;2023-07-13T01:22:42;76121.50;;;-142.75;100.00
41632;BME280;37452;51.938;4.624;2023-07-13T01:25:08;76133.31;;;-142.75;100.00
41632;BME280;37452;51.938;4.624;2023-07-13T01:27:33;76151.03;;;-142.75;100.00
41632;BME280;37452;51.938;4.624;2023-07-13T01:29:59;76145.13;;;-142.75;100.00
41632;BME280;37452;51.938;4.624;2023-07-13T01:32:28;76139.22;;;-142.75;100.00
41632;BME280;37452;51.938;4.624;2023-07-13T01:34:56;76141.19;;;-142.75;100.00
41632;BME280;37452;51.938;4.624;2023-07-13T01:37:23;76135.28;;;-142.75;100.00
41632;BME280;37452;51.938;4.624;2023-07-13T01:39:48;76154.97;;;-142.75;100.00
41632;BME280;37452;51.938;4.624;2023-07-13T01:42:14;76135.28;;;-142.75;100.00
41632;BME280;37452;51.938;4.624;2023-07-13T01:44:39;76151.03;;;-142.75;100.00
41632;BME280;37452;51.938;4.624;2023-07-13T01:47:05;76154.97;;;-142.75;100.00
41632;BME280;37452;51.938;4.624;2023-07-13T01:49:30;76145.13;;;-142.75;100.00
41632;BME280;37452;51.938;4.624;2023-07-13T01:51:56;76151.03;;;-142.75;100.00
41632;BME280;37452;51.938;4.624;2023-07-13T01:54:21;76168.75;;;-142.75;100.00
41632;BME280;37452;51.938;4.624;2023-07-13T01:56:47;76168.75;;;-142.75;100.00
41632;BME280;37452;51.938;4.624;2023-07-13T01:59:12;76184.50;;;-142.75;100.00
41632;BME280;37452;51.938;4.624;2023-07-13T02:01:38;76204.16;;;-142.75;100.00
41632;BME280;37452;51.938;4.624;2023-07-13T02:04:03;76212.03;;;-142.75;100.00
41632;BME280;37452;51.938;4.624;2023-07-13T02:06:29;76214.00;;;-142.75;100.00
41632;BME280;37452;51.938;4.624;2023-07-13T02:08:54;76221.88;;;-142.75;100.00
41632;BME280;37452;51.938;4.624;2023-07-13T02:11:20;76233.69;;;-142.75;100.00
41632;BME280;37452;51.938;4.624;2023-07-13T02:13:45;76247.47;;;-142.75;100.00
41632;BME280;37452;51.938;4.624;2023-07-13T02:16:11;76243.53;;;-142.75;100.00
41632;BME280;37452;51.938;4.624;2023-07-13T02:18:36;76237.63;;;-142.75;100.00
41632;BME280;37452;51.938;4.624;2023-07-13T02:21:02;76241.56;;;-142.75;100.00
41632;BME280;37452;51.938;4.624;2023-07-13T02:23:28;76239.59;;;-142.75;100.00
41632;BME280;37452;51.938;4.624;2023-07-13T02:25:55;76217.94;;;-142.75;100.00
41632;BME280;37452;51.938;4.624;2023-07-13T02:28:21;76223.84;;;-142.75;100.00
41632;BME280;37452;51.938;4.624;2023-07-13T02:30:46;76215.97;;;-142.75;100.00
41632;BME280;37452;51.938;4.624;2023-07-13T02:33:12;76210.06;;;-142.75;100.00
41632;BME280;37452;51.938;4.624;2023-07-13T02:35:37;76245.50;;;-142.75;100.00
41632;BME280;37452;51.938;4.624;2023-07-13T02:38:02;76231.72;;;-142.75;100.00
41632;BME280;37452;51.938;4.624;2023-07-13T02:40:28;76243.53;;;-142.75;100.00
41632;BME280;37452;51.938;4.624;2023-07-13T02:42:53;76227.78;;;-142.75;100.00
41632;BME280;37452;51.938;4.624;2023-07-13T02:45:19;76231.72;;;-142.75;100.00
41632;BME280;37452;51.938;4.624;2023-07-13T02:47:44;76219.91;;;-142.75;100.00
41632;BME280;37452;51.938;4.624;2023-07-13T02:50:09;76200.25;;;-142.75;100.00
41632;BME280;37452;51.938;4.624;2023-07-13T02:52:35;76206.13;;;-142.75;100.00
41632;BME280;37452;51.938;4.624;2023-07-13T02:55:00;76215.97;;;-142.75;100.00
41632;BME280;37452;51.938;4.624;2023-07-13T02:57:26;76200.25;;;-142.75;100.00
41632;BME280;37452;51.938;4.624;2023-07-13T02:59:53;76192.38;;;-142.75;100.00
41632;BME280;37452;51.938;4.624;2023-07-13T03:02:18;76196.31;;;-142.75;100.00
41632;BME280;37452;51.938;4.624;2023-07-13T03:04:44;76200.25;;;-142.75;100.00
41632;BME280;37452;51.938;4.624;2023-07-13T03:07:10;76225.81;;;-142.75;100.00
41632;BME280;37452;51.938;4.624;2023-07-13T03:09:35;76208.09;;;-142.75;100.00
41632;BME280;37452;51.938;4.624;2023-07-13T03:12:01;76204.16;;;-142.75;100.00
41632;BME280;37452;51.938;4.624;2023-07-13T03:14:27;76190.41;;;-142.75;100.00
41632;BME280;37452;51.938;4.624;2023-07-13T03:16:53;76190.41;;;-142.75;100.00
41632;BME280;37452;51.938;4.624;2023-07-13T03:19:19;76184.50;;;-142.75;100.00
41632;BME280;37452;51.938;4.624;2023-07-13T03:21:44;76182.53;;;-142.75;100.00
41632;BME280;37452;51.938;4.624;2023-07-13T03:24:10;76184.50;;;-142.75;100.00
41632;BME280;37452;51.938;4.624;2023-07-13T03:26:36;76180.56;;;-142.75;100.00
41632;BME280;37452;51.938;4.624;2023-07-13T03:29:02;76178.59;;;-142.75;100.00
41632;BME280;37452;51.938;4.624;2023-07-13T03:31:34;76188.44;;;-142.75;100.00
41632;BME280;37452;51.938;4.624;2023-07-13T03:34:00;76186.47;;;-142.75;100.00
41632;BME280;37452;51.938;4.624;2023-07-13T03:36:27;76198.28;;;-142.75;100.00
41632;BME280;37452;51.938;4.624;2023-07-13T03:38:58;76170.72;;;-142.75;100.00
41632;BME280;37452;51.938;4.624;2023-07-13T03:41:24;76184.50;;;-142.75;100.00
41632;BME280;37452;51.938;4.624;2023-07-13T03:43:50;76184.50;;;-142.75;100.00
41632;BME280;37452;51.938;4.624;2023-07-13T03:46:16;76160.88;;;-142.75;100.00
41632;BME280;37452;51.938;4.624;2023-07-13T03:48:44;76160.88;;;-142.75;100.00
41632;BME280;37452;51.938;4.624;2023-07-13T03:51:10;76160.88;;;-142.75;100.00
41632;BME280;37452;51.938;4.624;2023-07-13T03:53:40;76149.06;;;-142.75;100.00
41632;BME280;37452;51.938;4.624;2023-07-13T03:56:06;76172.69;;;-142.75;100.00
41632;BME280;37452;51.938;4.624;2023-07-13T03:58:34;76168.75;;;-142.75;100.00
41632;BME280;37452;51.938;4.624;2023-07-13T04:01:01;76184.50;;;-142.75;100.00
41632;BME280;37452;51.938;4.624;2023-07-13T04:03:27;76154.97;;;-142.75;100.00
41632;BME280;37452;51.938;4.624;2023-07-13T04:05:56;76145.13;;;-142.75;100.00
41632;BME280;37452;51.938;4.624;2023-07-13T04:08:34;76137.25;;;-142.75;100.00
41632;BME280;37452;51.938;4.624;2023-07-13T04:11:00;76160.88;;;-142.75;100.00
41632;BME280;37452;51.938;4.624;2023-07-13T04:13:26;76149.06;;;-142.75;100.00
41632;BME280;37452;51.938;4.624;2023-07-13T04:15:52;76137.25;;;-142.75;100.00
41632;BME280;37452;51.938;4.624;2023-07-13T04:18:18;76145.13;;;-142.75;100.00
41632;BME280;37452;51.938;4.624;2023-07-13T04:20:45;76137.25;;;-142.75;100.00
41632;BME280;37452;51.938;4.624;2023-07-13T04:23:11;76137.25;;;-142.75;100.00
41632;BME280;37452;51.938;4.624;2023-07-13T04:25:36;76149.06;;;-142.75;100.00
41632;BME280;37452;51.938;4.624;2023-07-13T04:28:03;76164.81;;;-142.75;100.00
41632;BME280;37452;51.938;4.624;2023-07-13T04:30:29;76151.03;;;-142.75;100.00
41632;BME280;37452;51.938;4.624;2023-07-13T04:32:54;76172.69;;;-142.75;100.00
41632;BME280;37452;51.938;4.624;2023-07-13T04:35:20;76156.94;;;-142.75;100.00
41632;BME280;37452;51.938;4.624;2023-07-13T04:37:47;76145.13;;;-142.75;100.00
41632;BME280;37452;51.938;4.624;2023-07-13T04:40:13;76149.06;;;-142.75;100.00
41632;BME280;37452;51.938;4.624;2023-07-13T04:42:39;76145.13;;;-142.75;100.00
41632;BME280;37452;51.938;4.624;2023-07-13T04:45:06;76139.22;;;-142.75;100.00
41632;BME280;37452;51.938;4.624;2023-07-13T04:47:32;76156.94;;;-142.75;100.00
41632;BME280;37452;51.938;4.624;2023-07-13T04:49:57;76160.88;;;-142.75;100.00
41632;BME280;37452;51.938;4.624;2023-07-13T04:52:23;76160.88;;;-142.75;100.00
41632;BME280;37452;51.938;4.624;2023-07-13T04:54:49;76154.97;;;-142.75;100.00
41632;BME280;37452;51.938;4.624;2023-07-13T04:57:14;76141.19;;;-142.75;100.00
41632;BME280;37452;51.938;4.624;2023-07-13T04:59:40;76105.75;;;-142.75;100.00
41632;BME280;37452;51.938;4.624;2023-07-13T05:02:06;76105.75;;;-142.75;100.00
41632;BME280;37452;51.938;4.624;2023-07-13T05:04:31;76090.00;;;-142.75;100.00
41632;BME280;37452;51.938;4.624;2023-07-13T05:06:57;76076.22;;;-142.75;100.00
41632;BME280;37452;51.938;4.624;2023-07-13T05:09:22;76091.97;;;-142.75;100.00
41632;BME280;37452;51.938;4.624;2023-07-13T05:11:48;76109.69;;;-142.75;100.00
41632;BME280;37452;51.938;4.624;2023-07-13T05:14:13;76117.56;;;-142.75;100.00
41632;BME280;37452;51.938;4.624;2023-07-13T05:16:40;76099.84;;;-142.75;100.00
41632;BME280;37452;51.938;4.624;2023-07-13T05:19:05;76105.75;;;-142.75;100.00
41632;BME280;37452;51.938;4.624;2023-07-13T05:21:31;76101.81;;;-142.75;100.00
41632;BME280;37452;51.938;4.624;2023-07-13T05:23:56;76088.03;;;-142.75;100.00
41632;BME280;37452;51.938;4.624;2023-07-13T05:26:21;76090.00;;;-142.75;100.00
41632;BME280;37452;51.938;4.624;2023-07-13T05:28:47;76082.13;;;-142.75;100.00
41632;BME280;37452;51.938;4.624;2023-07-13T05:31:13;76082.13;;;-142.75;100.00
41632;BME280;37452;51.938;4.624;2023-07-13T05:33:39;76072.31;;;-142.75;100.00
41632;BME280;37452;51.938;4.624;2023-07-13T05:36:04;76095.91;;;-142.75;100.00
41632;BME280;37452;51.938;4.624;2023-07-13T05:38:30;76103.78;;;-142.75;100.00
41632;BME280;37452;51.938;4.624;2023-07-13T05:40:56;76103.78;;;-142.75;100.00
41632;BME280;37452;51.938;4.624;2023-07-13T05:43:22;76129.38;;;-142.75;100.00
41632;BME280;37452;51.938;4.624;2023-07-13T05:45:48;76093.94;;;-142.75;100.00
41632;BME280;37452;51.938;4.624;2023-07-13T05:48:15;76088.03;;;-142.75;100.00
41632;BME280;37452;51.938;4.624;2023-07-13T05:50:40;76078.19;;;-142.75;100.00
41632;BME280;37452;51.938;4.624;2023-07-13T05:53:06;76066.41;;;-142.75;100.00
41632;BME280;37452;51.938;4.624;2023-07-13T05:55:32;76066.41;;;-142.75;100.00
41632;BME280;37452;51.938;4.624;2023-07-13T05:57:59;76080.16;;;-142.75;100.00
41632;BME280;37452;51.938;4.624;2023-07-13T06:00:25;76070.34;;;-142.75;100.00
41632;BME280;37452;51.938;4.624;2023-07-13T06:02:50;76078.19;;;-142.75;100.00
41632;BME280;37452;51.938;4.624;2023-07-13T06:05:15;76068.38;;;-142.75;100.00
41632;BME280;37452;51.938;4.624;2023-07-13T06:07:41;76082.13;;;-142.75;100.00
41632;BME280;37452;51.938;4.624;2023-07-13T06:10:07;76078.19;;;-142.75;100.00
41632;BME280;37452;51.938;4.624;2023-07-13T06:12:33;76123.47;;;-142.75;100.00
41632;BME280;37452;51.938;4.624;2023-07-13T06:14:58;76125.44;;;-142.75;100.00
41632;BME280;37452;51.938;4.624;2023-07-13T06:17:23;76121.50;;;-142.75;100.00
41632;BME280;37452;51.938;4.624;2023-07-13T06:19:49;76119.53;;;-142.75;100.00
41632;BME280;37452;51.938;4.624;2023-07-13T06:22:14;76121.50;;;-142.75;100.00
41632;BME280;37452;51.938;4.624;2023-07-13T06:24:40;76129.38;;;-142.75;100.00
41632;BME280;37452;51.938;4.624;2023-07-13T06:27:05;76111.66;;;-142.75;100.00
41632;BME280;37452;51.938;4.624;2023-07-13T06:29:31;76145.13;;;-142.75;100.00
41632;BME280;37452;51.938;4.624;2023-07-13T06:31:56;76194.34;;;-142.75;100.00
41632;BME280;37452;51.938;4.624;2023-07-13T06:34:22;76200.25;;;-142.75;100.00
41632;BME280;37452;51.938;4.624;2023-07-13T06:36:48;76225.81;;;-142.75;100.00
41632;BME280;37452;51.938;4.624;2023-07-13T06:39:13;76255.34;;;-142.75;100.00
41632;BME280;37452;51.938;4.624;2023-07-13T06:41:39;76239.59;;;-142.75;100.00
41632;BME280;37452;51.938;4.624;2023-07-13T06:44:05;76241.56;;;-142.75;100.00
41632;BME280;37452;51.938;4.624;2023-07-13T06:46:32;76219.91;;;-142.75;100.00
41632;BME280;37452;51.938;4.624;2023-07-13T06:48:57;76208.09;;;-142.75;100.00
41632;BME280;37452;51.938;4.624;2023-07-13T06:51:23;76200.25;;;-142.75;100.00
41632;BME280;37452;51.938;4.624;2023-07-13T06:53:48;76184.50;;;-142.75;100.00
41632;BME280;37452;51.938;4.624;2023-07-13T06:56:15;76184.50;;;-142.75;100.00
41632;BME280;37452;51.938;4.624;2023-07-13T06:58:40;76180.56;;;-142.75;100.00
41632;BME280;37452;51.938;4.624;2023-07-13T07:01:06;76192.38;;;-142.75;100.00
41632;BME280;37452;51.938;4.624;2023-07-13T07:03:31;76168.75;;;-142.75;100.00
41632;BME280;37452;51.938;4.624;2023-07-13T07:06:14;76125.44;;;-142.75;100.00
41632;BME280;37452;51.938;4.624;2023-07-13T07:08:40;76145.13;;;-142.75;100.00
41632;BME280;37452;51.938;4.624;2023-07-13T07:11:08;76156.94;;;-142.75;100.00
41632;BME280;37452;51.938;4.624;2023-07-13T07:13:33;76174.66;;;-142.75;100.00
41632;BME280;37452;51.938;4.624;2023-07-13T07:15:58;76192.38;;;-142.75;100.00
41632;BME280;37452;51.938;4.624;2023-07-13T07:18:25;76180.56;;;-142.75;100.00
41632;BME280;37452;51.938;4.624;2023-07-13T07:20:50;76184.50;;;-142.75;100.00
41632;BME280;37452;51.938;4.624;2023-07-13T07:23:16;76168.75;;;-142.75;100.00
41632;BME280;37452;51.938;4.624;2023-07-13T07:25:43;76158.91;;;-142.75;100.00
41632;BME280;37452;51.938;4.624;2023-07-13T07:28:09;76149.06;;;-142.75;100.00
41632;BME280;37452;51.938;4.624;2023-07-13T07:30:34;76131.34;;;-142.75;100.00
41632;BME280;37452;51.938;4.624;2023-07-13T07:33:00;76170.72;;;-142.75;100.00
41632;BME280;37452;51.938;4.624;2023-07-13T07:35:26;76188.44;;;-142.75;100.00
41632;BME280;37452;51.938;4.624;2023-07-13T07:37:52;76267.16;;;-142.75;100.00
41632;BME280;37452;51.938;4.624;2023-07-13T07:40:18;76286.84;;;-142.75;100.00
41632;BME280;37452;51.938;4.624;2023-07-13T07:42:43;76263.22;;;-142.75;100.00
41632;BME280;37452;51.938;4.624;2023-07-13T07:45:09;76286.84;;;-142.75;100.00
41632;BME280;37452;51.938;4.624;2023-07-13T07:47:37;76296.69;;;-142.75;100.00
41632;BME280;37452;51.938;4.624;2023-07-13T07:50:02;76300.63;;;-142.75;100.00
41632;BME280;37452;51.938;4.624;2023-07-13T07:52:28;76267.16;;;-142.75;100.00
41632;BME280;37452;51.938;4.624;2023-07-13T07:54:53;76212.03;;;-142.75;100.00
41632;BME280;37452;51.938;4.624;2023-07-13T07:57:18;76141.19;;;-142.75;100.00
41632;BME280;37452;51.938;4.624;2023-07-13T07:59:44;76062.47;;;-142.75;100.00
41632;BME280;37452;51.938;4.624;2023-07-13T08:02:10;76048.69;;;-142.75;100.00
41632;BME280;37452;51.938;4.624;2023-07-13T08:04:36;76044.75;;;-142.75;100.00
41632;BME280;37452;51.938;4.624;2023-07-13T08:07:02;75979.78;;;-142.75;100.00
41632;BME280;37452;51.938;4.624;2023-07-13T08:09:28;75932.56;;;-142.75;100.00
41632;BME280;37452;51.938;4.624;2023-07-13T08:11:54;75873.50;;;-142.75;100.00
41632;BME280;37452;51.938;4.624;2023-07-13T08:14:20;75865.63;;;-142.75;100.00
41632;BME280;37452;51.938;4.624;2023-07-13T08:16:45;75861.69;;;-142.75;100.00
41632;BME280;37452;51.938;4.624;2023-07-13T08:19:10;75930.59;;;-142.75;100.00
41632;BME280;37452;51.938;4.624;2023-07-13T08:21:36;76019.16;;;-142.75;100.00
41632;BME280;37452;51.938;4.624;2023-07-13T08:24:02;76062.47;;;-142.75;100.00
41632;BME280;37452;51.938;4.624;2023-07-13T08:26:27;76066.41;;;-142.75;100.00
41632;BME280;37452;51.938;4.624;2023-07-13T08:28:53;76072.31;;;-142.75;100.00
41632;BME280;37452;51.938;4.624;2023-07-13T08:31:18;75999.47;;;-142.75;100.00
41632;BME280;37452;51.938;4.624;2023-07-13T08:33:43;75967.97;;;-142.75;100.00
41632;BME280;37452;51.938;4.624;2023-07-13T08:36:09;75942.41;;;-142.75;100.00
41632;BME280;37452;51.938;4.624;2023-07-13T08:38:34;75908.94;;;-142.75;100.00
41632;BME280;37452;51.938;4.624;2023-07-13T08:41:03;75845.97;;;-142.75;100.00
41632;BME280;37452;51.938;4.624;2023-07-13T08:43:36;75840.06;;;-142.75;100.00
41632;BME280;37452;51.938;4.624;2023-07-13T08:46:09;75836.13;;;-142.75;100.00
41632;BME280;37452;51.938;4.624;2023-07-13T08:51:43;75853.84;;;-142.75;100.00
41632;BME280;37452;51.938;4.624;2023-07-13T08:54:22;75881.38;;;-142.75;100.00
41632;BME280;37452;51.938;4.624;2023-07-13T08:56:50;75960.13;;;-142.75;100.00
41632;BME280;37452;51.938;4.624;2023-07-13T08:59:21;75971.91;;;-142.75;100.00
41632;BME280;37452;51.938;4.624;2023-07-13T09:04:39;75993.56;;;-142.75;100.00
41632;BME280;37452;51.938;4.624;2023-07-13T09:07:16;75962.09;;;-142.75;100.00
41632;BME280;37452;51.938;4.624;2023-07-13T09:10:05;75912.88;;;-142.75;100.00
41632;BME280;37452;51.938;4.624;2023-07-13T09:15:01;75966.00;;;-142.75;100.00
41632;BME280;37452;51.938;4.624;2023-07-13T09:17:41;76029.00;;;-142.75;100.00
41632;BME280;37452;51.938;4.624;2023-07-13T09:20:29;76058.53;;;-142.75;100.00
41632;BME280;37452;51.938;4.624;2023-07-13T09:22:59;76131.34;;;-142.75;100.00
41632;BME280;37452;51.938;4.624;2023-07-13T09:25:30;76137.25;;;-142.75;100.00
41632;BME280;37452;51.938;4.624;2023-07-13T09:27:59;76117.56;;;-142.75;100.00
41632;BME280;37452;51.938;4.624;2023-07-13T09:33:09;76151.03;;;-142.75;100.00
41632;BME280;37452;51.938;4.624;2023-07-13T09:35:35;76143.16;;;-142.75;100.00
41632;BME280;37452;51.938;4.624;2023-07-13T09:38:18;76105.75;;;-142.75;100.00
41632;BME280;37452;51.938;4.624;2023-07-13T09:43:16;76101.81;;;-142.75;100.00
41632;BME280;37452;51.938;4.624;2023-07-13T09:45:45;76078.19;;;-142.75;100.00
41632;BME280;37452;51.938;4.624;2023-07-13T09:48:14;76042.78;;;-142.75;100.00
41632;BME280;37452;51.938;4.624;2023-07-13T09:50:40;76019.16;;;-142.75;100.00
41632;BME280;37452;51.938;4.624;2023-07-13T09:53:12;76025.06;;;-142.75;100.00
41632;BME280;37452;51.938;4.624;2023-07-13T09:55:39;76001.44;;;-142.75;100.00
41632;BME280;37452;51.938;4.624;2023-07-13T09:58:24;75950.28;;;-142.75;100.00
41632;BME280;37452;51.938;4.624;2023-07-13T10:03:32;75912.88;;;-142.75;100.00
41632;BME280;37452;51.938;4.624;2023-07-13T10:06:14;75906.97;;;-142.75;100.00
41632;BME280;37452;51.938;4.624;2023-07-13T10:08:40;75897.13;;;-142.75;100.00
41632;BME280;37452;51.938;4.624;2023-07-13T10:16:23;75889.25;;;-142.75;100.00
41632;BME280;37452;51.938;4.624;2023-07-13T10:18:53;75950.28;;;-142.75;100.00
41632;BME280;37452;51.938;4.624;2023-07-13T10:21:22;75952.25;;;-142.75;100.00
41632;BME280;37452;51.938;4.624;2023-07-13T10:23:55;75964.03;;;-142.75;100.00
41632;BME280;37452;51.938;4.624;2023-07-13T10:26:27;75960.13;;;-142.75;100.00
41632;BME280;37452;51.938;4.624;2023-07-13T10:29:00;75936.50;;;-142.75;100.00
41632;BME280;37452;51.938;4.624;2023-07-13T10:31:26;75966.00;;;-142.75;100.00
41632;BME280;37452;51.938;4.624;2023-07-13T10:33:52;75962.09;;;-142.75;100.00
41632;BME280;37452;51.938;4.624;2023-07-13T10:36:32;76003.41;;;-142.75;100.00
41632;BME280;37452;51.938;4.624;2023-07-13T10:39:02;75901.06;;;-142.75;100.00
41632;BME280;37452;51.938;4.624;2023-07-13T10:41:31;75836.13;;;-142.75;100.00
41632;BME280;37452;51.938;4.624;2023-07-13T10:43:58;75806.59;;;-142.75;100.00
41632;BME280;37452;51.938;4.624;2023-07-13T10:46:26;75782.97;;;-142.75;100.00
41632;BME280;37452;51.938;4.624;2023-07-13T10:48:58;75804.63;;;-142.75;100.00
41632;BME280;37452;51.938;4.624;2023-07-13T10:51:24;75818.41;;;-142.75;100.00
41632;BME280;37452;51.938;4.624;2023-07-13T10:54:19;75822.34;;;-142.75;100.00
41632;BME280;37452;51.938;4.624;2023-07-13T10:57:38;75845.97;;;-142.75;100.00
41632;BME280;37452;51.938;4.624;2023-07-13T10:59:39;75838.09;;;-142.75;100.00
41632;BME280;37452;51.938;4.624;2023-07-13T11:02:22;75802.66;;;-142.75;100.00
41632;BME280;37452;51.938;4.624;2023-07-13T11:04:52;75796.75;;;-142.75;100.00
41632;BME280;37452;51.938;4.624;2023-07-13T11:07:30;75814.47;;;-142.75;100.00
41632;BME280;37452;51.938;4.624;2023-07-13T11:09:59;75798.72;;;-142.75;100.00
41632;BME280;37452;51.938;4.624;2023-07-13T11:12:26;75794.78;;;-142.75;100.00
41632;BME280;37452;51.938;4.624;2023-07-13T11:17:34;75845.97;;;-142.75;100.00
41632;BME280;37452;51.938;4.624;2023-07-13T11:22:45;75775.09;;;-142.75;100.00
41632;BME280;37452;51.938;4.624;2023-07-13T11:25:28;75751.50;;;-142.75;100.00
41632;BME280;37452;51.938;4.624;2023-07-13T11:30:41;75818.41;;;-142.75;100.00
41632;BME280;37452;51.938;4.624;2023-07-13T11:36:07;75820.38;;;-142.75;100.00
41632;BME280;37452;51.938;4.624;2023-07-13T11:39:04;75802.66;;;-142.75;100.00
41632;BME280;37452;51.938;4.624;2023-07-13T11:41:34;75784.94;;;-142.75;100.00
41632;BME280;37452;51.938;4.624;2023-07-13T11:44:13;75739.69;;;-142.75;100.00
41632;BME280;37452;51.938;4.624;2023-07-13T11:46:45;75751.50;;;-142.75;100.00
41632;BME280;37452;51.938;4.624;2023-07-13T11:49:15;75725.91;;;-142.75;100.00
41632;BME280;37452;51.938;4.624;2023-07-13T11:51:41;75723.94;;;-142.75;100.00
41632;BME280;37452;51.938;4.624;2023-07-13T11:54:22;75706.22;;;-142.75;100.00
41632;BME280;37452;51.938;4.624;2023-07-13T11:56:49;75712.13;;;-142.75;99.57
41632;BME280;37452;51.938;4.624;2023-07-13T11:59:15;75735.75;;;-142.75;98.02
41632;BME280;37452;51.938;4.624;2023-07-13T12:01:44;75751.50;;;-142.75;93.85
41632;BME280;37452;51.938;4.624;2023-07-13T12:04:23;75749.53;;;-142.75;95.36
41632;BME280;37452;51.938;4.624;2023-07-13T12:07:07;75735.75;;;-142.75;93.34
41632;BME280;37452;51.938;4.624;2023-07-13T12:09:39;75743.63;;;-142.75;97.30
41632;BME280;37452;51.938;4.624;2023-07-13T12:12:10;75737.72;;;-142.75;98.26
41632;BME280;37452;51.938;4.624;2023-07-13T12:14:36;75721.97;;;-142.75;94.43
41632;BME280;37452;51.938;4.624;2023-07-13T12:17:09;75686.53;;;-142.75;96.22
41632;BME280;37452;51.938;4.624;2023-07-13T12:19:37;75733.78;;;-142.75;92.27
41632;BME280;37452;51.938;4.624;2023-07-13T12:22:03;75704.25;;;-142.75;96.05
41632;BME280;37452;51.938;4.624;2023-07-13T12:24:28;75684.56;;;-142.75;93.50
41632;BME280;37452;51.938;4.624;2023-07-13T12:26:59;75721.97;;;-142.75;90.29
41632;BME280;37452;51.938;4.624;2023-07-13T12:29:26;75771.16;;;-142.75;88.68
41632;BME280;37452;51.938;4.624;2023-07-13T12:31:51;75798.72;;;-142.75;88.80
41632;BME280;37452;51.938;4.624;2023-07-13T12:34:22;75820.38;;;-142.75;91.01
41632;BME280;37452;51.938;4.624;2023-07-13T12:41:45;75822.34;;;-142.75;91.31
41632;BME280;37452;51.938;4.624;2023-07-13T12:44:13;75804.63;;;-142.75;91.07
41632;BME280;37452;51.938;4.624;2023-07-13T12:46:39;75775.09;;;-142.75;96.20
41632;BME280;37452;51.938;4.624;2023-07-13T12:49:06;75741.66;;;-142.75;97.49
41632;BME280;37452;51.938;4.624;2023-07-13T12:51:32;75773.13;;;-142.75;88.46
41632;BME280;37452;51.938;4.624;2023-07-13T12:54:27;75739.69;;;-142.75;91.02
41632;BME280;37452;51.938;4.624;2023-07-13T12:56:53;75775.09;;;-142.75;89.42
41632;BME280;37452;51.938;4.624;2023-07-13T12:59:21;75775.09;;;-142.75;88.45
41632;BME280;37452;51.938;4.624;2023-07-13T13:01:49;75790.84;;;-142.75;88.79
41632;BME280;37452;51.938;4.624;2023-07-13T13:04:15;75747.56;;;-142.75;92.82
41632;BME280;37452;51.938;4.624;2023-07-13T13:06:41;75735.75;;;-142.75;94.06
41632;BME280;37452;51.938;4.624;2023-07-13T13:09:13;75698.34;;;-142.75;96.96
41632;BME280;37452;51.938;4.624;2023-07-13T13:11:39;75692.44;;;-142.75;94.56
41632;BME280;37452;51.938;4.624;2023-07-13T13:14:08;75700.31;;;-142.75;95.77